Airfield :







YOU CAN JOIN US ON...

 
LOGIN :

Register | Disclaimer

   EN    FR    IT 

 









Legend :    VFR   Marginal VFR   IFR   Intensive IFR   Very Intensive IFR
Visi :
Ceiling :
>= 8 km
>= 3000ft
5 to 8 km
1000 to 3000 ft
1500m to 5 km
500 to 1000 ft
800 to 1500m
200 to 500 ft
< 800m
< 200 ft
Symbols :   Thunderstorms  Fog  Heavy snow  Heavy precipitations  Wind > 20 kt







- Airport Elevation : 83 ft


KBHB - Hancock County-Bar Harbor

CURRENT METAR :
  • 230556Z AUTO 06012G18KT 4SM -RA BR BKN008 OVC011 10/09 A3002 RMK AO2 CIG 005V009 SLP171 P0010 60045 T01000094 10128 20100 56015

EXPIRED METARs :
  • 230511Z AUTO 05014G22KT 5SM -RA BR OVC008 11/10 A3003 RMK AO2 CIG 005V011 P0001
  • 230456Z AUTO 06011G19KT 2 1/2SM RA BR OVC006 11/10 A3004 RMK AO2 SLP175 P0017 T01060100
  • 230356Z AUTO 05010KT 4SM RA BR OVC006 12/11 A3005 RMK AO2 RAB08 SLP180 P0008 T01170111

TAF KBHB
Valid from the 23 at 06:00 until the 24 at 06:00 UTC


230523Z 2306/2406 05013G21KT 4SM -RA OVC008
FM231200 03011KT 6SM -RA OVC012
FM231500 03011KT P6SM VCSH OVC018
FM232200 01007KT P6SM OVC013
FM240500 VRB03KT 6SM -RA OVC009
KZBW FIR / North America



MET'MAP, your aeronautical weather chart ! - Copyright ORBIFLY December 2007 - Disclaimer

ORBIFLY MET'MAP TEAM :

Programming & Development : Alexandra Zaïnal
Concept & Development : Baudouin d'Aumeries
Co-Development & Prog : Marc-Olivier Méhu
Technical & hardware support : Manuel Goepfert

Contact : metmap@orbifly.com




SOURCES & CREDITS :

   NOAA